PWSweather.com
Personal Weather Stations
Station Observations
KNCCHINA3
Red Tractor Trail, China Grove, NC 28023

Red Tractor TrailChina Grove, NC 28023

Lat: 35.59751, Lon: -80.60201

Elevation: 800

Station Type: Oregon Scientific WMR 968

http://www.joesweathergarage.com

High Low Average
Temperature 86.2°F30.1°C 58.4°F14.7°C 70.4°F21.3°C
Dew Point 62.1°F16.7°C 48.8°F9.3°C 56.4°F13.6°C
Winds 11.9 mph 19.2 kmh Calm Calm 5.0 mph SSW8.0 kmh SSW
Wind Gusts 24.6 mph39.6 kmh -- 9.0 mph14.5 kmh
Humidity 98% 34% 66%
Pressure 30.09 in1019.0 mb 29.94 in1013.9 mb -
Precipitation 0.00 in0.0 mm - -
Hour Temp Dew Point Humidity Winds Wind Gusts Pressure Precip Precip Rate Daily Precip Total
12:00 AM 59.4°F15.2°C 51.1°F10.6°C 74% Calm Calm -- 30.06 in1017.9 mb 0.00 in0.0 mm 0.00 in0.0 mm 0.00 in0.0 mm
12:05 AM 59.6°F15.3°C 51.7°F10.9°C 75% 3.7 mph ESE6.0 kmh ESE 5.0 mph8.0 kmh 30.06 in1017.9 mb 0.00 in0.0 mm 0.00 in0.0 mm 0.00 in0.0 mm
12:10 AM 60.2°F15.7°C 53.0°F11.7°C 77% 3.0 mph SSE4.8 kmh SSE 5.0 mph8.0 kmh 30.06 in1017.9 mb 0.00 in0.0 mm 0.00 in0.0 mm 0.00 in0.0 mm
12:15 AM 60.6°F15.9°C 53.1°F11.7°C 76% 3.4 mph SSE5.5 kmh SSE 5.8 mph9.3 kmh 30.06 in1017.9 mb 0.00 in0.0 mm 0.00 in0.0 mm 0.00 in0.0 mm
12:20 AM 60.8°F16.0°C 53.3°F11.8°C 76% 3.8 mph S6.1 kmh S 5.8 mph9.3 kmh 30.06 in1017.9 mb 0.00 in0.0 mm 0.00 in0.0 mm 0.00 in0.0 mm
12:26 AM 61.1°F16.2°C 53.6°F12.0°C 76% 4.5 mph SSE7.2 kmh SSE 5.4 mph8.7 kmh 30.03 in1016.9 mb 0.00 in0.0 mm 0.00 in0.0 mm 0.00 in0.0 mm
12:31 AM 61.5°F16.4°C 53.9°F12.2°C 76% 4.1 mph S6.6 kmh S 6.2 mph10.0 kmh 30.03 in1016.9 mb 0.00 in0.0 mm 0.00 in0.0 mm 0.00 in0.0 mm
12:36 AM 62.0°F16.7°C 54.4°F12.4°C 76% 5.1 mph S8.2 kmh S 6.2 mph10.0 kmh 30.03 in1016.9 mb 0.00 in0.0 mm 0.00 in0.0 mm 0.00 in0.0 mm
12:41 AM 62.2°F16.8°C 55.0°F12.8°C 77% 5.5 mph S8.9 kmh S 7.2 mph11.6 kmh 30.03 in1016.9 mb 0.00 in0.0 mm 0.00 in0.0 mm 0.00 in0.0 mm
12:46 AM 62.6°F17.0°C 55.4°F13.0°C 77% 5.6 mph S9.0 kmh S 8.0 mph12.9 kmh 30.03 in1016.9 mb 0.00 in0.0 mm 0.00 in0.0 mm 0.00 in0.0 mm
12:51 AM 62.8°F17.1°C 55.9°F13.3°C 78% 6.0 mph S9.7 kmh S 8.0 mph12.9 kmh 30.03 in1016.9 mb 0.00 in0.0 mm 0.00 in0.0 mm 0.00 in0.0 mm
12:56 AM 62.9°F17.2°C 56.3°F13.5°C 79% 6.2 mph S10.0 kmh S 8.0 mph12.9 kmh 30.03 in1016.9 mb 0.00 in0.0 mm 0.00 in0.0 mm 0.00 in0.0 mm
01:01 AM 63.1°F17.3°C 56.9°F13.8°C 80% 5.8 mph S9.3 kmh S 8.0 mph12.9 kmh 30.03 in1016.9 mb 0.00 in0.0 mm 0.00 in0.0 mm 0.00 in0.0 mm
01:08 AM 63.1°F17.3°C 56.9°F13.8°C 80% 5.1 mph S8.2 kmh S 8.0 mph12.9 kmh 30.06 in1017.9 mb 0.00 in0.0 mm 0.00 in0.0 mm 0.00 in0.0 mm
01:13 AM 62.9°F17.2°C 57.0°F13.9°C 81% 3.8 mph SSW6.1 kmh SSW 8.0 mph12.9 kmh 30.06 in1017.9 mb 0.00 in0.0 mm 0.00 in0.0 mm 0.00 in0.0 mm
01:18 AM 62.9°F17.2°C 57.3°F14.1°C 82% 5.7 mph S9.2 kmh S 8.0 mph12.9 kmh 30.06 in1017.9 mb 0.00 in0.0 mm 0.00 in0.0 mm 0.00 in0.0 mm
01:23 AM 62.9°F17.2°C 57.7°F14.3°C 83% 5.3 mph SSW8.5 kmh SSW 8.0 mph12.9 kmh 30.06 in1017.9 mb 0.00 in0.0 mm 0.00 in0.0 mm 0.00 in0.0 mm
01:28 AM 62.8°F17.1°C 57.6°F14.2°C 83% 3.8 mph S6.1 kmh S 6.8 mph10.9 kmh 30.06 in1017.9 mb 0.00 in0.0 mm 0.00 in0.0 mm 0.00 in0.0 mm
01:33 AM 62.8°F17.1°C 57.9°F14.4°C 84% 4.3 mph S6.9 kmh S 6.2 mph10.0 kmh 30.06 in1017.9 mb 0.00 in0.0 mm 0.00 in0.0 mm 0.00 in0.0 mm
01:38 AM 62.8°F17.1°C 58.2°F14.6°C 85% 4.2 mph SSW6.8 kmh SSW 8.0 mph12.9 kmh 30.06 in1017.9 mb 0.00 in0.0 mm 0.00 in0.0 mm 0.00 in0.0 mm
01:44 AM 62.4°F16.9°C 57.8°F14.3°C 85% 4.2 mph S6.8 kmh S 8.0 mph12.9 kmh 30.06 in1017.9 mb 0.00 in0.0 mm 0.00 in0.0 mm 0.00 in0.0 mm
01:52 AM 62.6°F17.0°C 59.0°F15.0°C 88% 7.0 mph S11.3 kmh S 9.8 mph15.8 kmh 30.03 in1016.9 mb 0.00 in0.0 mm 0.00 in0.0 mm 0.00 in0.0 mm
01:57 AM 62.6°F17.0°C 59.0°F15.0°C 88% 5.3 mph S8.5 kmh S 9.8 mph15.8 kmh 30.03 in1016.9 mb 0.00 in0.0 mm 0.00 in0.0 mm 0.00 in0.0 mm
02:02 AM 62.6°F17.0°C 59.3°F15.2°C 89% 4.5 mph SSW7.2 kmh SSW 8.6 mph13.8 kmh 30.03 in1016.9 mb 0.00 in0.0 mm 0.00 in0.0 mm 0.00 in0.0 mm
02:07 AM 62.8°F17.1°C 59.5°F15.3°C 89% 5.6 mph SSW9.0 kmh SSW 8.0 mph12.9 kmh 30.03 in1016.9 mb 0.00 in0.0 mm 0.00 in0.0 mm 0.00 in0.0 mm
02:12 AM 62.8°F17.1°C 59.5°F15.3°C 89% 5.2 mph S8.4 kmh S 8.6 mph13.8 kmh 30.03 in1016.9 mb 0.00 in0.0 mm 0.00 in0.0 mm 0.00 in0.0 mm
02:17 AM 62.6°F17.0°C 59.3°F15.2°C 89% 4.0 mph S6.4 kmh S 8.6 mph13.8 kmh 30.03 in1016.9 mb 0.00 in0.0 mm 0.00 in0.0 mm 0.00 in0.0 mm
02:22 AM 62.6°F17.0°C 59.6°F15.3°C 90% 7.6 mph S12.2 kmh S 8.6 mph13.8 kmh 30.03 in1016.9 mb 0.00 in0.0 mm 0.00 in0.0 mm 0.00 in0.0 mm
02:27 AM 62.6°F17.0°C 59.6°F15.3°C 90% 5.1 mph SSW8.2 kmh SSW 8.6 mph13.8 kmh 30.03 in1016.9 mb 0.00 in0.0 mm 0.00 in0.0 mm 0.00 in0.0 mm
02:32 AM 62.6°F17.0°C 59.6°F15.3°C 90% 6.5 mph SSW10.5 kmh SSW 8.6 mph13.8 kmh 30.03 in1016.9 mb 0.00 in0.0 mm 0.00 in0.0 mm 0.00 in0.0 mm
02:37 AM 62.4°F16.9°C 59.7°F15.4°C 91% 4.8 mph SSW7.7 kmh SSW 8.6 mph13.8 kmh 30.03 in1016.9 mb 0.00 in0.0 mm 0.00 in0.0 mm 0.00 in0.0 mm
02:43 AM 62.4°F16.9°C 59.4°F15.2°C 90% 3.7 mph SSW6.0 kmh SSW 8.6 mph13.8 kmh 30.03 in1016.9 mb 0.00 in0.0 mm 0.00 in0.0 mm 0.00 in0.0 mm
02:48 AM 62.2°F16.8°C 59.5°F15.3°C 91% 4.2 mph S6.8 kmh S 8.6 mph13.8 kmh 30.03 in1016.9 mb 0.00 in0.0 mm 0.00 in0.0 mm 0.00 in0.0 mm
02:54 AM 62.0°F16.7°C 59.3°F15.2°C 91% 4.3 mph SSW6.9 kmh SSW 6.8 mph10.9 kmh 30.03 in1016.9 mb 0.00 in0.0 mm 0.00 in0.0 mm 0.00 in0.0 mm
02:59 AM 61.7°F16.5°C 59.0°F15.0°C 91% 4.2 mph S6.8 kmh S 5.8 mph9.3 kmh 30.03 in1016.9 mb 0.00 in0.0 mm 0.00 in0.0 mm 0.00 in0.0 mm
03:04 AM 61.5°F16.4°C 59.1°F15.1°C 92% 4.0 mph SSW6.4 kmh SSW 6.2 mph10.0 kmh 30.03 in1016.9 mb 0.00 in0.0 mm 0.00 in0.0 mm 0.00 in0.0 mm
03:09 AM 61.5°F16.4°C 59.1°F15.1°C 92% 4.7 mph S7.6 kmh S 7.2 mph11.6 kmh 30.00 in1015.9 mb 0.00 in0.0 mm 0.00 in0.0 mm 0.00 in0.0 mm
03:14 AM 61.5°F16.4°C 59.4°F15.2°C 93% 5.1 mph S8.2 kmh S 7.2 mph11.6 kmh 30.00 in1015.9 mb 0.00 in0.0 mm 0.00 in0.0 mm 0.00 in0.0 mm
03:19 AM 61.5°F16.4°C 59.1°F15.1°C 92% 4.4 mph S7.1 kmh S 7.6 mph12.2 kmh 30.00 in1015.9 mb 0.00 in0.0 mm 0.00 in0.0 mm 0.00 in0.0 mm
03:24 AM 61.7°F16.5°C 59.6°F15.3°C 93% 6.4 mph SSW10.3 kmh SSW 8.6 mph13.8 kmh 30.00 in1015.9 mb 0.00 in0.0 mm 0.00 in0.0 mm 0.00 in0.0 mm
03:29 AM 61.7°F16.5°C 59.6°F15.3°C 93% 5.7 mph S9.2 kmh S 8.6 mph13.8 kmh 30.00 in1015.9 mb 0.00 in0.0 mm 0.00 in0.0 mm 0.00 in0.0 mm
03:34 AM 61.5°F16.4°C 59.4°F15.2°C 93% 4.8 mph SSW7.7 kmh SSW 7.6 mph12.2 kmh 30.00 in1015.9 mb 0.00 in0.0 mm 0.00 in0.0 mm 0.00 in0.0 mm
03:39 AM 61.3°F16.3°C 59.2°F15.1°C 93% 4.5 mph SSW7.2 kmh SSW 7.6 mph12.2 kmh 30.06 in1017.9 mb 0.00 in0.0 mm 0.00 in0.0 mm 0.00 in0.0 mm
03:44 AM 61.3°F16.3°C 59.2°F15.1°C 93% 5.5 mph SSW8.9 kmh SSW 7.6 mph12.2 kmh 30.06 in1017.9 mb 0.00 in0.0 mm 0.00 in0.0 mm 0.00 in0.0 mm
03:49 AM 61.1°F16.2°C 59.0°F15.0°C 93% 4.5 mph SSW7.2 kmh SSW 7.2 mph11.6 kmh 30.06 in1017.9 mb 0.00 in0.0 mm 0.00 in0.0 mm 0.00 in0.0 mm
03:54 AM 61.1°F16.2°C 59.3°F15.2°C 94% 4.9 mph S7.9 kmh S 8.0 mph12.9 kmh 30.00 in1015.9 mb 0.00 in0.0 mm 0.00 in0.0 mm 0.00 in0.0 mm
03:59 AM 61.1°F16.2°C 59.3°F15.2°C 94% 4.7 mph SSW7.6 kmh SSW 8.0 mph12.9 kmh 30.00 in1015.9 mb 0.00 in0.0 mm 0.00 in0.0 mm 0.00 in0.0 mm
04:04 AM 61.1°F16.2°C 59.3°F15.2°C 94% 4.3 mph SSW6.9 kmh SSW 8.0 mph12.9 kmh 30.00 in1015.9 mb 0.00 in0.0 mm 0.00 in0.0 mm 0.00 in0.0 mm
04:09 AM 61.0°F16.1°C 59.2°F15.1°C 94% 4.5 mph SSW7.2 kmh SSW 6.8 mph10.9 kmh 30.06 in1017.9 mb 0.00 in0.0 mm 0.00 in0.0 mm 0.00 in0.0 mm
04:14 AM 61.0°F16.1°C 59.2°F15.1°C 94% 5.5 mph SSW8.9 kmh SSW 7.6 mph12.2 kmh 30.06 in1017.9 mb 0.00 in0.0 mm 0.00 in0.0 mm 0.00 in0.0 mm
04:19 AM 61.0°F16.1°C 59.5°F15.3°C 95% 4.2 mph SSW6.8 kmh SSW 11.6 mph18.7 kmh 30.06 in1017.9 mb 0.00 in0.0 mm 0.00 in0.0 mm 0.00 in0.0 mm
04:24 AM 60.8°F16.0°C 59.0°F15.0°C 94% 4.2 mph SSW6.8 kmh SSW 11.6 mph18.7 kmh 30.03 in1016.9 mb 0.00 in0.0 mm 0.00 in0.0 mm 0.00 in0.0 mm
04:29 AM 60.6°F15.9°C 58.8°F14.9°C 94% 3.6 mph SSE5.8 kmh SSE 8.6 mph13.8 kmh 30.03 in1016.9 mb 0.00 in0.0 mm 0.00 in0.0 mm 0.00 in0.0 mm
04:35 AM 60.6°F15.9°C 59.1°F15.1°C 95% 4.1 mph S6.6 kmh S 5.4 mph8.7 kmh 30.03 in1016.9 mb 0.00 in0.0 mm 0.00 in0.0 mm 0.00 in0.0 mm
04:40 AM 60.4°F15.8°C 58.9°F14.9°C 95% 4.0 mph SSW6.4 kmh SSW 5.4 mph8.7 kmh 30.03 in1016.9 mb 0.00 in0.0 mm 0.00 in0.0 mm 0.00 in0.0 mm
04:45 AM 60.4°F15.8°C 59.2°F15.1°C 96% 5.0 mph SSW8.0 kmh SSW 6.8 mph10.9 kmh 30.03 in1016.9 mb 0.00 in0.0 mm 0.00 in0.0 mm 0.00 in0.0 mm
04:50 AM 60.2°F15.7°C 59.0°F15.0°C 96% 3.2 mph S5.1 kmh S 6.8 mph10.9 kmh 30.03 in1016.9 mb 0.00 in0.0 mm 0.00 in0.0 mm 0.00 in0.0 mm
04:55 AM 60.2°F15.7°C 59.0°F15.0°C 96% 3.5 mph S5.6 kmh S 5.4 mph8.7 kmh 30.03 in1016.9 mb 0.00 in0.0 mm 0.00 in0.0 mm 0.00 in0.0 mm
05:00 AM 60.1°F15.6°C 58.9°F14.9°C 96% 3.9 mph S6.3 kmh S 5.8 mph9.3 kmh 30.03 in1016.9 mb 0.00 in0.0 mm 0.00 in0.0 mm 0.00 in0.0 mm
05:05 AM 59.9°F15.5°C 58.7°F14.8°C 96% 3.1 mph S5.0 kmh S 5.8 mph9.3 kmh 30.03 in1016.9 mb 0.00 in0.0 mm 0.00 in0.0 mm 0.00 in0.0 mm
05:10 AM 59.8°F15.4°C 58.5°F14.7°C 96% 3.4 mph S5.5 kmh S 5.4 mph8.7 kmh 30.03 in1016.9 mb 0.00 in0.0 mm 0.00 in0.0 mm 0.00 in0.0 mm
05:15 AM 59.6°F15.3°C 58.3°F14.6°C 96% 3.8 mph S6.1 kmh S 5.4 mph8.7 kmh 30.03 in1016.9 mb 0.00 in0.0 mm 0.00 in0.0 mm 0.00 in0.0 mm
05:20 AM 59.4°F15.2°C 58.1°F14.5°C 96% 2.6 mph SSE4.2 kmh SSE 5.4 mph8.7 kmh 30.03 in1016.9 mb 0.00 in0.0 mm 0.00 in0.0 mm 0.00 in0.0 mm
05:26 AM 59.3°F15.2°C 58.0°F14.4°C 96% 3.5 mph SW5.6 kmh SW 4.0 mph6.4 kmh 30.00 in1015.9 mb 0.00 in0.0 mm 0.00 in0.0 mm 0.00 in0.0 mm
05:31 AM 59.1°F15.1°C 57.8°F14.3°C 96% 2.0 mph SSE3.2 kmh SSE 4.0 mph6.4 kmh 30.00 in1015.9 mb 0.00 in0.0 mm 0.00 in0.0 mm 0.00 in0.0 mm
05:38 AM 58.9°F14.9°C 57.6°F14.2°C 96% Calm Calm 3.2 mph5.1 kmh 30.03 in1016.9 mb 0.00 in0.0 mm 0.00 in0.0 mm 0.00 in0.0 mm
05:43 AM 58.9°F14.9°C 57.9°F14.4°C 97% 3.1 mph SSE5.0 kmh SSE 5.0 mph8.0 kmh 30.03 in1016.9 mb 0.00 in0.0 mm 0.00 in0.0 mm 0.00 in0.0 mm
05:49 AM 58.9°F14.9°C 57.9°F14.4°C 97% 2.2 mph SSE3.5 kmh SSE 5.0 mph8.0 kmh 30.03 in1016.9 mb 0.00 in0.0 mm 0.00 in0.0 mm 0.00 in0.0 mm
05:54 AM 58.7°F14.8°C 57.7°F14.3°C 97% Calm Calm 3.2 mph5.1 kmh 30.03 in1016.9 mb 0.00 in0.0 mm 0.00 in0.0 mm 0.00 in0.0 mm
05:59 AM 58.4°F14.7°C 57.4°F14.1°C 97% Calm Calm -- 30.03 in1016.9 mb 0.00 in0.0 mm 0.00 in0.0 mm 0.00 in0.0 mm
06:04 AM 58.5°F14.7°C 57.8°F14.3°C 98% 2.8 mph S4.5 kmh S 4.4 mph7.1 kmh 30.03 in1016.9 mb 0.00 in0.0 mm 0.00 in0.0 mm 0.00 in0.0 mm
06:09 AM 58.7°F14.8°C 58.0°F14.4°C 98% 2.9 mph SSE4.7 kmh SSE 4.4 mph7.1 kmh 30.00 in1015.9 mb 0.00 in0.0 mm 0.00 in0.0 mm 0.00 in0.0 mm
06:14 AM 58.5°F14.7°C 57.8°F14.3°C 98% 1.8 mph S2.9 kmh S 5.4 mph8.7 kmh 30.00 in1015.9 mb 0.00 in0.0 mm 0.00 in0.0 mm 0.00 in0.0 mm
06:19 AM 58.7°F14.8°C 58.0°F14.4°C 98% 2.5 mph S4.0 kmh S 5.4 mph8.7 kmh 30.00 in1015.9 mb 0.00 in0.0 mm 0.00 in0.0 mm 0.00 in0.0 mm
06:24 AM 58.7°F14.8°C 58.0°F14.4°C 98% 2.5 mph SSW4.0 kmh SSW 4.4 mph7.1 kmh 30.00 in1015.9 mb 0.00 in0.0 mm 0.00 in0.0 mm 0.00 in0.0 mm
06:30 AM 58.9°F14.9°C 58.2°F14.6°C 98% 3.8 mph S6.1 kmh S 9.4 mph15.1 kmh 30.00 in1015.9 mb 0.00 in0.0 mm 0.00 in0.0 mm 0.00 in0.0 mm
06:35 AM 59.1°F15.1°C 58.4°F14.7°C 98% 4.2 mph S6.8 kmh S 9.4 mph15.1 kmh 30.00 in1015.9 mb 0.00 in0.0 mm 0.00 in0.0 mm 0.00 in0.0 mm
06:40 AM 59.1°F15.1°C 58.4°F14.7°C 98% 3.4 mph S5.5 kmh S 5.4 mph8.7 kmh 30.06 in1017.9 mb 0.00 in0.0 mm 0.00 in0.0 mm 0.00 in0.0 mm
06:45 AM 58.9°F14.9°C 58.2°F14.6°C 98% 3.1 mph S5.0 kmh S 5.0 mph8.0 kmh 30.06 in1017.9 mb 0.00 in0.0 mm 0.00 in0.0 mm 0.00 in0.0 mm
06:50 AM 59.1°F15.1°C 58.4°F14.7°C 98% 4.3 mph SSW6.9 kmh SSW 5.8 mph9.3 kmh 30.06 in1017.9 mb 0.00 in0.0 mm 0.00 in0.0 mm 0.00 in0.0 mm
06:55 AM 58.9°F14.9°C 58.2°F14.6°C 98% 3.1 mph SSW5.0 kmh SSW 5.8 mph9.3 kmh 30.03 in1016.9 mb 0.00 in0.0 mm 0.00 in0.0 mm 0.00 in0.0 mm
07:00 AM 58.9°F14.9°C 58.2°F14.6°C 98% 3.5 mph SSW5.6 kmh SSW 5.0 mph8.0 kmh 30.03 in1016.9 mb 0.00 in0.0 mm 0.00 in0.0 mm 0.00 in0.0 mm
07:05 AM 58.9°F14.9°C 58.2°F14.6°C 98% 3.2 mph S5.1 kmh S 5.4 mph8.7 kmh 30.03 in1016.9 mb 0.00 in0.0 mm 0.00 in0.0 mm 0.00 in0.0 mm
07:10 AM 59.1°F15.1°C 58.4°F14.7°C 98% 3.5 mph SSW5.6 kmh SSW 5.8 mph9.3 kmh 30.03 in1016.9 mb 0.00 in0.0 mm 0.00 in0.0 mm 0.00 in0.0 mm
07:15 AM 59.3°F15.2°C 58.6°F14.8°C 98% 2.6 mph SSW4.2 kmh SSW 5.8 mph9.3 kmh 30.03 in1016.9 mb 0.00 in0.0 mm 0.00 in0.0 mm 0.00 in0.0 mm
07:21 AM 59.3°F15.2°C 58.6°F14.8°C 98% 3.2 mph S5.1 kmh S 4.4 mph7.1 kmh 30.00 in1015.9 mb 0.00 in0.0 mm 0.00 in0.0 mm 0.00 in0.0 mm
07:26 AM 59.4°F15.2°C 58.7°F14.8°C 98% 4.3 mph S6.9 kmh S 6.8 mph10.9 kmh 30.00 in1015.9 mb 0.00 in0.0 mm 0.00 in0.0 mm 0.00 in0.0 mm
07:32 AM 59.8°F15.4°C 59.1°F15.1°C 98% 3.1 mph S5.0 kmh S 6.8 mph10.9 kmh 30.00 in1015.9 mb 0.00 in0.0 mm 0.00 in0.0 mm 0.00 in0.0 mm
07:37 AM 59.9°F15.5°C 59.3°F15.2°C 98% 3.7 mph SW6.0 kmh SW 5.0 mph8.0 kmh 30.03 in1016.9 mb 0.00 in0.0 mm 0.00 in0.0 mm 0.00 in0.0 mm
07:42 AM 60.1°F15.6°C 59.5°F15.3°C 98% 3.5 mph SSE5.6 kmh SSE 5.4 mph8.7 kmh 30.03 in1016.9 mb 0.00 in0.0 mm 0.00 in0.0 mm 0.00 in0.0 mm
07:47 AM 60.2°F15.7°C 59.6°F15.3°C 98% 3.3 mph SSW5.3 kmh SSW 5.4 mph8.7 kmh 30.03 in1016.9 mb 0.00 in0.0 mm 0.00 in0.0 mm 0.00 in0.0 mm
07:52 AM 60.4°F15.8°C 59.8°F15.4°C 98% 4.0 mph S6.4 kmh S 5.4 mph8.7 kmh 30.03 in1016.9 mb 0.00 in0.0 mm 0.00 in0.0 mm 0.00 in0.0 mm
07:57 AM 60.4°F15.8°C 59.8°F15.4°C 98% 2.8 mph S4.5 kmh S 6.2 mph10.0 kmh 30.03 in1016.9 mb 0.00 in0.0 mm 0.00 in0.0 mm 0.00 in0.0 mm
08:03 AM 60.6°F15.9°C 59.7°F15.4°C 97% 3.8 mph SSW6.1 kmh SSW 5.0 mph8.0 kmh 30.03 in1016.9 mb 0.00 in0.0 mm 0.00 in0.0 mm 0.00 in0.0 mm
08:08 AM 60.6°F15.9°C 59.7°F15.4°C 97% 2.7 mph SSE4.3 kmh SSE 5.0 mph8.0 kmh 30.03 in1016.9 mb 0.00 in0.0 mm 0.00 in0.0 mm 0.00 in0.0 mm
08:13 AM 60.8°F16.0°C 59.9°F15.5°C 97% 3.1 mph S5.0 kmh S 4.0 mph6.4 kmh 30.03 in1016.9 mb 0.00 in0.0 mm 0.00 in0.0 mm 0.00 in0.0 mm
08:18 AM 61.3°F16.3°C 60.4°F15.8°C 97% 2.8 mph WSW4.5 kmh WSW 5.8 mph9.3 kmh 30.03 in1016.9 mb 0.00 in0.0 mm 0.00 in0.0 mm 0.00 in0.0 mm
08:23 AM 61.7°F16.5°C 60.5°F15.8°C 96% 2.6 mph SW4.2 kmh SW 5.8 mph9.3 kmh 30.03 in1016.9 mb 0.00 in0.0 mm 0.00 in0.0 mm 0.00 in0.0 mm
08:28 AM 62.0°F16.7°C 60.8°F16.0°C 96% 3.0 mph S4.8 kmh S 5.4 mph8.7 kmh 30.03 in1016.9 mb 0.00 in0.0 mm 0.00 in0.0 mm 0.00 in0.0 mm
08:33 AM 62.4°F16.9°C 60.6°F15.9°C 94% 4.0 mph W6.4 kmh W 6.2 mph10.0 kmh 30.03 in1016.9 mb 0.00 in0.0 mm 0.00 in0.0 mm 0.00 in0.0 mm
08:38 AM 62.9°F17.2°C 60.8°F16.0°C 93% 4.0 mph NW6.4 kmh NW 6.8 mph10.9 kmh 30.03 in1016.9 mb 0.00 in0.0 mm 0.00 in0.0 mm 0.00 in0.0 mm
08:44 AM 63.1°F17.3°C 60.7°F15.9°C 92% 4.7 mph W7.6 kmh W 6.8 mph10.9 kmh 30.03 in1016.9 mb 0.00 in0.0 mm 0.00 in0.0 mm 0.00 in0.0 mm
08:49 AM 63.7°F17.6°C 61.3°F16.3°C 92% 4.8 mph SSW7.7 kmh SSW 7.2 mph11.6 kmh 30.03 in1016.9 mb 0.00 in0.0 mm 0.00 in0.0 mm 0.00 in0.0 mm
08:54 AM 64.2°F17.9°C 61.2°F16.2°C 90% 4.3 mph SW6.9 kmh SW 11.2 mph18.0 kmh 30.06 in1017.9 mb 0.00 in0.0 mm 0.00 in0.0 mm 0.00 in0.0 mm
08:59 AM 64.6°F18.1°C 61.5°F16.4°C 90% 4.4 mph WSW7.1 kmh WSW 11.2 mph18.0 kmh 30.06 in1017.9 mb 0.00 in0.0 mm 0.00 in0.0 mm 0.00 in0.0 mm
09:04 AM 65.1°F18.4°C 61.4°F16.3°C 88% 5.3 mph WSW8.5 kmh WSW 7.6 mph12.2 kmh 30.06 in1017.9 mb 0.00 in0.0 mm 0.00 in0.0 mm 0.00 in0.0 mm
09:09 AM 65.6°F18.7°C 61.3°F16.3°C 86% 5.1 mph NNE8.2 kmh NNE 8.6 mph13.8 kmh 30.06 in1017.9 mb 0.00 in0.0 mm 0.00 in0.0 mm 0.00 in0.0 mm
09:14 AM 66.0°F18.9°C 61.0°F16.1°C 84% 4.1 mph SW6.6 kmh SW 8.6 mph13.8 kmh 30.06 in1017.9 mb 0.00 in0.0 mm 0.00 in0.0 mm 0.00 in0.0 mm
09:19 AM 66.7°F19.3°C 61.0°F16.1°C 82% 7.7 mph WNW12.4 kmh WNW 11.6 mph18.7 kmh 30.06 in1017.9 mb 0.00 in0.0 mm 0.00 in0.0 mm 0.00 in0.0 mm
09:24 AM 67.6°F19.8°C 61.2°F16.2°C 80% 4.9 mph SW7.9 kmh SW 11.6 mph18.7 kmh 30.06 in1017.9 mb 0.00 in0.0 mm 0.00 in0.0 mm 0.00 in0.0 mm
09:29 AM 69.2°F20.7°C 62.1°F16.7°C 78% 5.4 mph SW8.7 kmh SW 8.0 mph12.9 kmh 30.06 in1017.9 mb 0.00 in0.0 mm 0.00 in0.0 mm 0.00 in0.0 mm
09:34 AM 70.7°F21.5°C 61.3°F16.3°C 72% 6.5 mph WNW10.5 kmh WNW 12.0 mph19.3 kmh 30.06 in1017.9 mb 0.00 in0.0 mm 0.00 in0.0 mm 0.00 in0.0 mm
09:39 AM 70.5°F21.4°C 60.8°F16.0°C 71% 6.4 mph W10.3 kmh W 12.0 mph19.3 kmh 30.09 in1019.0 mb 0.00 in0.0 mm 0.00 in0.0 mm 0.00 in0.0 mm
09:44 AM 69.6°F20.9°C 59.1°F15.1°C 69% 7.7 mph WSW12.4 kmh WSW 9.8 mph15.8 kmh 30.09 in1019.0 mb 0.00 in0.0 mm 0.00 in0.0 mm 0.00 in0.0 mm
09:49 AM 69.1°F20.6°C 59.0°F15.0°C 70% 6.9 mph WSW11.1 kmh WSW 9.8 mph15.8 kmh 30.09 in1019.0 mb 0.00 in0.0 mm 0.00 in0.0 mm 0.00 in0.0 mm
09:54 AM 68.5°F20.3°C 59.2°F15.1°C 72% 4.6 mph SW7.4 kmh SW 9.8 mph15.8 kmh 30.09 in1019.0 mb 0.00 in0.0 mm 0.00 in0.0 mm 0.00 in0.0 mm
09:59 AM 68.3°F20.2°C 59.0°F15.0°C 72% 7.0 mph SW11.3 kmh SW 12.0 mph19.3 kmh 30.09 in1019.0 mb 0.00 in0.0 mm 0.00 in0.0 mm 0.00 in0.0 mm
10:04 AM 68.0°F20.0°C 59.1°F15.1°C 73% 5.5 mph SW8.9 kmh SW 12.0 mph19.3 kmh 30.09 in1019.0 mb 0.00 in0.0 mm 0.00 in0.0 mm 0.00 in0.0 mm
10:09 AM 68.5°F20.3°C 60.0°F15.6°C 74% 6.0 mph W9.7 kmh W 9.8 mph15.8 kmh 30.09 in1019.0 mb 0.00 in0.0 mm 0.00 in0.0 mm 0.00 in0.0 mm
10:14 AM 68.7°F20.4°C 59.8°F15.4°C 73% 4.2 mph SSW6.8 kmh SSW 8.6 mph13.8 kmh 30.09 in1019.0 mb 0.00 in0.0 mm 0.00 in0.0 mm 0.00 in0.0 mm
10:19 AM 69.6°F20.9°C 60.7°F15.9°C 73% 5.4 mph WSW8.7 kmh WSW 8.0 mph12.9 kmh 30.09 in1019.0 mb 0.00 in0.0 mm 0.00 in0.0 mm 0.00 in0.0 mm
10:24 AM 70.7°F21.5°C 61.0°F16.1°C 71% 5.3 mph WSW8.5 kmh WSW 7.6 mph12.2 kmh 30.09 in1019.0 mb 0.00 in0.0 mm 0.00 in0.0 mm 0.00 in0.0 mm
10:29 AM 71.6°F22.0°C 60.6°F15.9°C 68% 5.9 mph WSW9.5 kmh WSW 9.4 mph15.1 kmh 30.09 in1019.0 mb 0.00 in0.0 mm 0.00 in0.0 mm 0.00 in0.0 mm
10:34 AM 73.0°F22.8°C 61.1°F16.2°C 66% 6.2 mph S10.0 kmh S 9.4 mph15.1 kmh 30.09 in1019.0 mb 0.00 in0.0 mm 0.00 in0.0 mm 0.00 in0.0 mm
10:39 AM 74.5°F23.6°C 61.7°F16.5°C 64% 5.6 mph SW9.0 kmh SW 8.6 mph13.8 kmh 30.09 in1019.0 mb 0.00 in0.0 mm 0.00 in0.0 mm 0.00 in0.0 mm
10:44 AM 75.4°F24.1°C 61.2°F16.2°C 61% 6.9 mph S11.1 kmh S 10.8 mph17.4 kmh 30.09 in1019.0 mb 0.00 in0.0 mm 0.00 in0.0 mm 0.00 in0.0 mm
10:49 AM 75.9°F24.4°C 61.2°F16.2°C 60% 5.3 mph S8.5 kmh S 10.8 mph17.4 kmh 30.09 in1019.0 mb 0.00 in0.0 mm 0.00 in0.0 mm 0.00 in0.0 mm
10:55 AM 76.4°F24.7°C 61.2°F16.2°C 59% 6.3 mph SW10.1 kmh SW 9.8 mph15.8 kmh 30.09 in1019.0 mb 0.00 in0.0 mm 0.00 in0.0 mm 0.00 in0.0 mm
11:00 AM 76.4°F24.7°C 60.7°F15.9°C 58% 5.9 mph S9.5 kmh S 13.0 mph20.9 kmh 30.09 in1019.0 mb 0.00 in0.0 mm 0.00 in0.0 mm 0.00 in0.0 mm
11:05 AM 77.2°F25.1°C 60.9°F16.1°C 57% 5.3 mph SSW8.5 kmh SSW 13.0 mph20.9 kmh 30.09 in1019.0 mb 0.00 in0.0 mm 0.00 in0.0 mm 0.00 in0.0 mm
11:11 AM 77.9°F25.5°C 60.5°F15.8°C 55% 7.2 mph S11.6 kmh S 9.8 mph15.8 kmh 30.09 in1019.0 mb 0.00 in0.0 mm 0.00 in0.0 mm 0.00 in0.0 mm
11:18 AM 78.4°F25.8°C 61.0°F16.1°C 55% 5.3 mph W8.5 kmh W 9.8 mph15.8 kmh 30.09 in1019.0 mb 0.00 in0.0 mm 0.00 in0.0 mm 0.00 in0.0 mm
11:23 AM 77.9°F25.5°C 60.0°F15.6°C 54% 4.9 mph WNW7.9 kmh WNW 8.6 mph13.8 kmh 30.09 in1019.0 mb 0.00 in0.0 mm 0.00 in0.0 mm 0.00 in0.0 mm
11:29 AM 78.6°F25.9°C 60.1°F15.6°C 53% 5.5 mph SW8.9 kmh SW 8.6 mph13.8 kmh 30.09 in1019.0 mb 0.00 in0.0 mm 0.00 in0.0 mm 0.00 in0.0 mm
11:34 AM 79.1°F26.2°C 59.5°F15.3°C 51% 7.7 mph S12.4 kmh S 11.6 mph18.7 kmh 30.09 in1019.0 mb 0.00 in0.0 mm 0.00 in0.0 mm 0.00 in0.0 mm
11:39 AM 79.7°F26.5°C 59.5°F15.3°C 50% 10.2 mph S16.4 kmh S 15.6 mph25.1 kmh 30.09 in1019.0 mb 0.00 in0.0 mm 0.00 in0.0 mm 0.00 in0.0 mm
11:44 AM 79.0°F26.1°C 58.8°F14.9°C 50% 6.1 mph NW9.8 kmh NW 15.6 mph25.1 kmh 30.09 in1019.0 mb 0.00 in0.0 mm 0.00 in0.0 mm 0.00 in0.0 mm
11:49 AM 79.9°F26.6°C 59.6°F15.3°C 50% 9.4 mph S15.1 kmh S 15.2 mph24.5 kmh 30.09 in1019.0 mb 0.00 in0.0 mm 0.00 in0.0 mm 0.00 in0.0 mm
11:54 AM 80.4°F26.9°C 59.5°F15.3°C 49% 8.2 mph SSW13.2 kmh SSW 15.2 mph24.5 kmh 30.06 in1017.9 mb 0.00 in0.0 mm 0.00 in0.0 mm 0.00 in0.0 mm
12:02 PM 80.6°F27.0°C 59.1°F15.1°C 48% 8.3 mph W13.4 kmh W 12.0 mph19.3 kmh 30.06 in1017.9 mb 0.00 in0.0 mm 0.00 in0.0 mm 0.00 in0.0 mm
12:07 PM 81.1°F27.3°C 59.6°F15.3°C 48% 6.3 mph SW10.1 kmh SW 11.2 mph18.0 kmh 30.06 in1017.9 mb 0.00 in0.0 mm 0.00 in0.0 mm 0.00 in0.0 mm
12:12 PM 80.9°F27.2°C 58.8°F14.9°C 47% 7.5 mph S12.1 kmh S 10.8 mph17.4 kmh 30.06 in1017.9 mb 0.00 in0.0 mm 0.00 in0.0 mm 0.00 in0.0 mm
12:17 PM 81.8°F27.7°C 59.0°F15.0°C 46% 6.3 mph WSW10.1 kmh WSW 10.8 mph17.4 kmh 30.06 in1017.9 mb 0.00 in0.0 mm 0.00 in0.0 mm 0.00 in0.0 mm
12:22 PM 81.8°F27.7°C 59.0°F15.0°C 46% 6.6 mph S10.6 kmh S 10.8 mph17.4 kmh 30.06 in1017.9 mb 0.00 in0.0 mm 0.00 in0.0 mm 0.00 in0.0 mm
12:27 PM 79.9°F26.6°C 57.2°F14.0°C 46% 7.6 mph WSW12.2 kmh WSW 10.8 mph17.4 kmh 30.06 in1017.9 mb 0.00 in0.0 mm 0.00 in0.0 mm 0.00 in0.0 mm
12:32 PM 78.8°F26.0°C 56.2°F13.4°C 46% 6.3 mph SW10.1 kmh SW 16.2 mph26.1 kmh 30.06 in1017.9 mb 0.00 in0.0 mm 0.00 in0.0 mm 0.00 in0.0 mm
12:37 PM 79.5°F26.4°C 57.5°F14.2°C 47% 4.5 mph SW7.2 kmh SW 16.2 mph26.1 kmh 30.03 in1016.9 mb 0.00 in0.0 mm 0.00 in0.0 mm 0.00 in0.0 mm
12:42 PM 81.3°F27.4°C 57.9°F14.4°C 45% 11.1 mph S17.9 kmh S 21.4 mph34.4 kmh 30.03 in1016.9 mb 0.00 in0.0 mm 0.00 in0.0 mm 0.00 in0.0 mm
12:47 PM 81.1°F27.3°C 55.7°F13.2°C 42% 8.4 mph SSW13.5 kmh SSW 21.4 mph34.4 kmh 30.03 in1016.9 mb 0.00 in0.0 mm 0.00 in0.0 mm 0.00 in0.0 mm
12:54 PM 82.0°F27.8°C 56.5°F13.6°C 42% 8.2 mph W13.2 kmh W 13.0 mph20.9 kmh 30.03 in1016.9 mb 0.00 in0.0 mm 0.00 in0.0 mm 0.00 in0.0 mm
12:59 PM 81.5°F27.5°C 56.1°F13.4°C 42% 10.7 mph SSW17.2 kmh SSW 16.2 mph26.1 kmh 30.03 in1016.9 mb 0.00 in0.0 mm 0.00 in0.0 mm 0.00 in0.0 mm
01:04 PM 80.6°F27.0°C 55.3°F12.9°C 42% 9.3 mph WSW15.0 kmh WSW 16.2 mph26.1 kmh 30.03 in1016.9 mb 0.00 in0.0 mm 0.00 in0.0 mm 0.00 in0.0 mm
01:09 PM 80.2°F26.8°C 55.6°F13.1°C 43% 9.9 mph SW15.9 kmh SW 14.4 mph23.2 kmh 30.03 in1016.9 mb 0.00 in0.0 mm 0.00 in0.0 mm 0.00 in0.0 mm
01:14 PM 79.7°F26.5°C 55.1°F12.8°C 43% 8.9 mph SW14.3 kmh SW 17.8 mph28.6 kmh 30.03 in1016.9 mb 0.00 in0.0 mm 0.00 in0.0 mm 0.00 in0.0 mm
01:19 PM 80.0°F26.7°C 56.1°F13.4°C 44% 7.0 mph SW11.3 kmh SW 19.2 mph30.9 kmh 30.03 in1016.9 mb 0.00 in0.0 mm 0.00 in0.0 mm 0.00 in0.0 mm
01:24 PM 81.3°F27.4°C 56.6°F13.7°C 43% 7.0 mph SW11.3 kmh SW 19.2 mph30.9 kmh 30.00 in1015.9 mb 0.00 in0.0 mm 0.00 in0.0 mm 0.00 in0.0 mm
01:29 PM 82.2°F27.9°C 56.7°F13.7°C 42% 8.9 mph WSW14.3 kmh WSW 14.8 mph23.8 kmh 30.00 in1015.9 mb 0.00 in0.0 mm 0.00 in0.0 mm 0.00 in0.0 mm
01:34 PM 83.5°F28.6°C 57.2°F14.0°C 41% 9.0 mph SW14.5 kmh SW 14.8 mph23.8 kmh 30.00 in1015.9 mb 0.00 in0.0 mm 0.00 in0.0 mm 0.00 in0.0 mm
01:39 PM 84.5°F29.2°C 57.4°F14.1°C 40% 7.1 mph S11.4 kmh S 14.4 mph23.2 kmh 30.03 in1016.9 mb 0.00 in0.0 mm 0.00 in0.0 mm 0.00 in0.0 mm
01:44 PM 84.7°F29.3°C 56.9°F13.8°C 39% 8.3 mph SSW13.4 kmh SSW 24.6 mph39.6 kmh 30.03 in1016.9 mb 0.00 in0.0 mm 0.00 in0.0 mm 0.00 in0.0 mm
01:49 PM 84.2°F29.0°C 56.4°F13.6°C 39% 10.3 mph SW16.6 kmh SW 24.6 mph39.6 kmh 30.03 in1016.9 mb 0.00 in0.0 mm 0.00 in0.0 mm 0.00 in0.0 mm
01:55 PM 84.7°F29.3°C 56.9°F13.8°C 39% 8.0 mph S12.9 kmh S 15.6 mph25.1 kmh 30.00 in1015.9 mb 0.00 in0.0 mm 0.00 in0.0 mm 0.00 in0.0 mm
02:00 PM 84.4°F29.1°C 56.6°F13.7°C 39% 9.8 mph S15.8 kmh S 15.6 mph25.1 kmh 30.00 in1015.9 mb 0.00 in0.0 mm 0.00 in0.0 mm 0.00 in0.0 mm
02:05 PM 84.2°F29.0°C 56.4°F13.6°C 39% 8.0 mph S12.9 kmh S 17.4 mph28.0 kmh 30.00 in1015.9 mb 0.00 in0.0 mm 0.00 in0.0 mm 0.00 in0.0 mm
02:10 PM 85.8°F29.9°C 57.1°F13.9°C 38% 8.3 mph SW13.4 kmh SW 17.4 mph28.0 kmh 30.00 in1015.9 mb 0.00 in0.0 mm 0.00 in0.0 mm 0.00 in0.0 mm
02:15 PM 84.4°F29.1°C 56.6°F13.7°C 39% 8.4 mph W13.5 kmh W 21.4 mph34.4 kmh 30.00 in1015.9 mb 0.00 in0.0 mm 0.00 in0.0 mm 0.00 in0.0 mm
02:20 PM 83.8°F28.8°C 56.1°F13.4°C 39% 11.1 mph S17.9 kmh S 21.4 mph34.4 kmh 30.00 in1015.9 mb 0.00 in0.0 mm 0.00 in0.0 mm 0.00 in0.0 mm
02:25 PM 85.6°F29.8°C 56.9°F13.8°C 38% 7.3 mph S11.7 kmh S 17.0 mph27.4 kmh 30.00 in1015.9 mb 0.00 in0.0 mm 0.00 in0.0 mm 0.00 in0.0 mm
02:30 PM 85.3°F29.6°C 56.7°F13.7°C 38% 8.1 mph WSW13.0 kmh WSW 13.0 mph20.9 kmh 30.00 in1015.9 mb 0.00 in0.0 mm 0.00 in0.0 mm 0.00 in0.0 mm
02:36 PM 84.4°F29.1°C 55.9°F13.3°C 38% 11.9 mph W19.2 kmh W 14.8 mph23.8 kmh 30.00 in1015.9 mb 0.00 in0.0 mm 0.00 in0.0 mm 0.00 in0.0 mm
02:41 PM 84.9°F29.4°C 56.3°F13.5°C 38% 7.5 mph WSW12.1 kmh WSW 14.8 mph23.8 kmh 30.00 in1015.9 mb 0.00 in0.0 mm 0.00 in0.0 mm 0.00 in0.0 mm
02:46 PM 82.9°F28.3°C 54.5°F12.5°C 38% 8.8 mph W14.2 kmh W 13.0 mph20.9 kmh 30.00 in1015.9 mb 0.00 in0.0 mm 0.00 in0.0 mm 0.00 in0.0 mm
02:51 PM 84.0°F28.9°C 56.2°F13.4°C 39% 7.0 mph WSW11.3 kmh WSW 13.0 mph20.9 kmh 30.00 in1015.9 mb 0.00 in0.0 mm 0.00 in0.0 mm 0.00 in0.0 mm
02:56 PM 83.5°F28.6°C 55.1°F12.8°C 38% 6.7 mph S10.8 kmh S 12.6 mph20.3 kmh 29.97 in1014.9 mb 0.00 in0.0 mm 0.00 in0.0 mm 0.00 in0.0 mm
03:01 PM 83.8°F28.8°C 55.3°F12.9°C 38% 6.7 mph SW10.8 kmh SW 13.8 mph22.2 kmh 29.97 in1014.9 mb 0.00 in0.0 mm 0.00 in0.0 mm 0.00 in0.0 mm
03:07 PM 85.8°F29.9°C 56.3°F13.5°C 37% 7.9 mph WSW12.7 kmh WSW 13.8 mph22.2 kmh 29.97 in1014.9 mb 0.00 in0.0 mm 0.00 in0.0 mm 0.00 in0.0 mm
03:12 PM 84.9°F29.4°C 55.5°F13.1°C 37% 9.4 mph WNW15.1 kmh WNW 13.0 mph20.9 kmh 29.97 in1014.9 mb 0.00 in0.0 mm 0.00 in0.0 mm 0.00 in0.0 mm
03:17 PM 85.3°F29.6°C 55.1°F12.8°C 36% 8.6 mph WNW13.8 kmh WNW 13.0 mph20.9 kmh 29.97 in1014.9 mb 0.00 in0.0 mm 0.00 in0.0 mm 0.00 in0.0 mm
03:22 PM 83.8°F28.8°C 54.6°F12.6°C 37% 6.8 mph SSW10.9 kmh SSW 13.0 mph20.9 kmh 29.97 in1014.9 mb 0.00 in0.0 mm 0.00 in0.0 mm 0.00 in0.0 mm
03:28 PM 84.5°F29.2°C 54.4°F12.4°C 36% 6.9 mph SW11.1 kmh SW 15.2 mph24.5 kmh 29.97 in1014.9 mb 0.00 in0.0 mm 0.00 in0.0 mm 0.00 in0.0 mm
03:33 PM 83.8°F28.8°C 54.6°F12.6°C 37% 11.1 mph SSW17.9 kmh SSW 17.0 mph27.4 kmh 29.97 in1014.9 mb 0.00 in0.0 mm 0.00 in0.0 mm 0.00 in0.0 mm
03:38 PM 85.1°F29.5°C 55.7°F13.2°C 37% 7.5 mph SSW12.1 kmh SSW 17.0 mph27.4 kmh 29.94 in1013.9 mb 0.00 in0.0 mm 0.00 in0.0 mm 0.00 in0.0 mm
03:43 PM 85.1°F29.5°C 55.0°F12.8°C 36% 9.6 mph WSW15.4 kmh WSW 12.6 mph20.3 kmh 29.94 in1013.9 mb 0.00 in0.0 mm 0.00 in0.0 mm 0.00 in0.0 mm
03:48 PM 85.3°F29.6°C 54.4°F12.4°C 35% 11.4 mph SW18.3 kmh SW 14.8 mph23.8 kmh 29.94 in1013.9 mb 0.00 in0.0 mm 0.00 in0.0 mm 0.00 in0.0 mm
03:53 PM 84.7°F29.3°C 54.6°F12.6°C 36% 5.9 mph SW9.5 kmh SW 14.8 mph23.8 kmh 29.97 in1014.9 mb 0.00 in0.0 mm 0.00 in0.0 mm 0.00 in0.0 mm
03:59 PM 85.1°F29.5°C 54.2°F12.3°C 35% 6.8 mph SSW10.9 kmh SSW 17.0 mph27.4 kmh 29.97 in1014.9 mb 0.00 in0.0 mm 0.00 in0.0 mm 0.00 in0.0 mm
04:04 PM 85.3°F29.6°C 54.4°F12.4°C 35% 9.2 mph WSW14.8 kmh WSW 17.0 mph27.4 kmh 29.97 in1014.9 mb 0.00 in0.0 mm 0.00 in0.0 mm 0.00 in0.0 mm
04:09 PM 86.2°F30.1°C 55.1°F12.8°C 35% 7.6 mph WSW12.2 kmh WSW 16.2 mph26.1 kmh 29.94 in1013.9 mb 0.00 in0.0 mm 0.00 in0.0 mm 0.00 in0.0 mm
04:14 PM 86.2°F30.1°C 55.1°F12.8°C 35% 7.0 mph S11.3 kmh S 16.2 mph26.1 kmh 29.94 in1013.9 mb 0.00 in0.0 mm 0.00 in0.0 mm 0.00 in0.0 mm
04:19 PM 85.6°F29.8°C 54.6°F12.6°C 35% 7.9 mph SW12.7 kmh SW 16.2 mph26.1 kmh 29.94 in1013.9 mb 0.00 in0.0 mm 0.00 in0.0 mm 0.00 in0.0 mm
04:24 PM 85.4°F29.7°C 54.4°F12.4°C 35% 8.3 mph S13.4 kmh S 17.4 mph28.0 kmh 29.97 in1014.9 mb 0.00 in0.0 mm 0.00 in0.0 mm 0.00 in0.0 mm
04:29 PM 86.0°F30.0°C 55.0°F12.8°C 35% 7.2 mph W11.6 kmh W 17.4 mph28.0 kmh 29.97 in1014.9 mb 0.00 in0.0 mm 0.00 in0.0 mm 0.00 in0.0 mm
04:34 PM 85.4°F29.7°C 54.4°F12.4°C 35% 7.9 mph SSW12.7 kmh SSW 19.6 mph31.5 kmh 29.97 in1014.9 mb 0.00 in0.0 mm 0.00 in0.0 mm 0.00 in0.0 mm
04:40 PM 84.5°F29.2°C 53.6°F12.0°C 35% 7.3 mph WSW11.7 kmh WSW 19.6 mph31.5 kmh 29.97 in1014.9 mb 0.00 in0.0 mm 0.00 in0.0 mm 0.00 in0.0 mm
04:45 PM 84.2°F29.0°C 52.6°F11.4°C 34% 7.2 mph SW11.6 kmh SW 19.6 mph31.5 kmh 29.97 in1014.9 mb 0.00 in0.0 mm 0.00 in0.0 mm 0.00 in0.0 mm
04:50 PM 82.4°F28.0°C 52.6°F11.4°C 36% 7.6 mph SW12.2 kmh SW 12.6 mph20.3 kmh 29.97 in1014.9 mb 0.00 in0.0 mm 0.00 in0.0 mm 0.00 in0.0 mm
04:55 PM 81.1°F27.3°C 52.2°F11.2°C 37% 5.9 mph S9.5 kmh S 12.6 mph20.3 kmh 29.97 in1014.9 mb 0.00 in0.0 mm 0.00 in0.0 mm 0.00 in0.0 mm
05:00 PM 80.0°F26.7°C 51.9°F11.1°C 38% 6.5 mph S10.5 kmh S 9.4 mph15.1 kmh 29.97 in1014.9 mb 0.00 in0.0 mm 0.00 in0.0 mm 0.00 in0.0 mm
05:05 PM 79.7°F26.5°C 51.7°F10.9°C 38% 7.9 mph S12.7 kmh S 9.8 mph15.8 kmh 29.97 in1014.9 mb 0.00 in0.0 mm 0.00 in0.0 mm 0.00 in0.0 mm
05:10 PM 81.3°F27.4°C 53.1°F11.7°C 38% 5.5 mph SW8.9 kmh SW 9.8 mph15.8 kmh 29.97 in1014.9 mb 0.00 in0.0 mm 0.00 in0.0 mm 0.00 in0.0 mm
05:15 PM 81.7°F27.6°C 53.5°F11.9°C 38% 6.5 mph WSW10.5 kmh WSW 12.0 mph19.3 kmh 29.97 in1014.9 mb 0.00 in0.0 mm 0.00 in0.0 mm 0.00 in0.0 mm
05:20 PM 82.7°F28.2°C 53.6°F12.0°C 37% 6.6 mph WSW10.6 kmh WSW 14.8 mph23.8 kmh 29.97 in1014.9 mb 0.00 in0.0 mm 0.00 in0.0 mm 0.00 in0.0 mm
05:25 PM 82.2°F27.9°C 53.2°F11.8°C 37% 8.7 mph SW14.0 kmh SW 14.8 mph23.8 kmh 29.97 in1014.9 mb 0.00 in0.0 mm 0.00 in0.0 mm 0.00 in0.0 mm
05:31 PM 81.7°F27.6°C 52.7°F11.5°C 37% 5.3 mph SW8.5 kmh SW 14.8 mph23.8 kmh 29.97 in1014.9 mb 0.00 in0.0 mm 0.00 in0.0 mm 0.00 in0.0 mm
05:36 PM 82.0°F27.8°C 53.7°F12.1°C 38% 4.7 mph S7.6 kmh S 14.4 mph23.2 kmh 29.97 in1014.9 mb 0.00 in0.0 mm 0.00 in0.0 mm 0.00 in0.0 mm
05:41 PM 82.0°F27.8°C 53.7°F12.1°C 38% 6.4 mph WSW10.3 kmh WSW 8.0 mph12.9 kmh 29.97 in1014.9 mb 0.00 in0.0 mm 0.00 in0.0 mm 0.00 in0.0 mm
05:46 PM 81.1°F27.3°C 52.2°F11.2°C 37% 6.1 mph WSW9.8 kmh WSW 11.2 mph18.0 kmh 29.97 in1014.9 mb 0.00 in0.0 mm 0.00 in0.0 mm 0.00 in0.0 mm
05:51 PM 80.9°F27.2°C 52.0°F11.1°C 37% 6.1 mph WSW9.8 kmh WSW 11.2 mph18.0 kmh 29.97 in1014.9 mb 0.00 in0.0 mm 0.00 in0.0 mm 0.00 in0.0 mm
05:56 PM 80.8°F27.1°C 51.9°F11.1°C 37% 6.9 mph SW11.1 kmh SW 11.6 mph18.7 kmh 29.97 in1014.9 mb 0.00 in0.0 mm 0.00 in0.0 mm 0.00 in0.0 mm
06:01 PM 80.4°F26.9°C 52.3°F11.3°C 38% 9.1 mph SSW14.6 kmh SSW 14.4 mph23.2 kmh 29.97 in1014.9 mb 0.00 in0.0 mm 0.00 in0.0 mm 0.00 in0.0 mm
06:06 PM 80.2°F26.8°C 52.1°F11.2°C 38% 5.4 mph S8.7 kmh S 14.4 mph23.2 kmh 29.97 in1014.9 mb 0.00 in0.0 mm 0.00 in0.0 mm 0.00 in0.0 mm
06:11 PM 80.0°F26.7°C 51.9°F11.1°C 38% 5.1 mph S8.2 kmh S 8.6 mph13.8 kmh 29.97 in1014.9 mb 0.00 in0.0 mm 0.00 in0.0 mm 0.00 in0.0 mm
06:16 PM 79.1°F26.2°C 51.1°F10.6°C 38% 6.5 mph SW10.5 kmh SW 13.0 mph20.9 kmh 29.97 in1014.9 mb 0.00 in0.0 mm 0.00 in0.0 mm 0.00 in0.0 mm
06:21 PM 79.0°F26.1°C 51.8°F11.0°C 39% 7.2 mph SW11.6 kmh SW 13.0 mph20.9 kmh 29.97 in1014.9 mb 0.00 in0.0 mm 0.00 in0.0 mm 0.00 in0.0 mm
06:26 PM 79.0°F26.1°C 51.8°F11.0°C 39% 5.0 mph WSW8.0 kmh WSW 13.0 mph20.9 kmh 29.97 in1014.9 mb 0.00 in0.0 mm 0.00 in0.0 mm 0.00 in0.0 mm
06:31 PM 78.4°F25.8°C 51.9°F11.1°C 40% 3.7 mph SW6.0 kmh SW 9.8 mph15.8 kmh 29.97 in1014.9 mb 0.00 in0.0 mm 0.00 in0.0 mm 0.00 in0.0 mm
06:36 PM 77.7°F25.4°C 51.3°F10.7°C 40% 6.0 mph SW9.7 kmh SW 8.6 mph13.8 kmh 29.97 in1014.9 mb 0.00 in0.0 mm 0.00 in0.0 mm 0.00 in0.0 mm
06:42 PM 77.2°F25.1°C 50.9°F10.5°C 40% 4.4 mph S7.1 kmh S 8.6 mph13.8 kmh 29.97 in1014.9 mb 0.00 in0.0 mm 0.00 in0.0 mm 0.00 in0.0 mm
06:47 PM 77.0°F25.0°C 50.7°F10.4°C 40% 6.8 mph SSW10.9 kmh SSW 8.6 mph13.8 kmh 29.97 in1014.9 mb 0.00 in0.0 mm 0.00 in0.0 mm 0.00 in0.0 mm
06:52 PM 76.6°F24.8°C 51.0°F10.6°C 41% 4.0 mph S6.4 kmh S 8.6 mph13.8 kmh 29.97 in1014.9 mb 0.00 in0.0 mm 0.00 in0.0 mm 0.00 in0.0 mm
06:57 PM 76.4°F24.7°C 50.8°F10.4°C 41% 4.7 mph SW7.6 kmh SW 9.4 mph15.1 kmh 29.97 in1014.9 mb 0.00 in0.0 mm 0.00 in0.0 mm 0.00 in0.0 mm
07:03 PM 76.3°F24.6°C 51.4°F10.8°C 42% 4.7 mph SSW7.6 kmh SSW 8.6 mph13.8 kmh 29.97 in1014.9 mb 0.00 in0.0 mm 0.00 in0.0 mm 0.00 in0.0 mm
07:08 PM 76.1°F24.5°C 50.6°F10.3°C 41% 5.8 mph S9.3 kmh S 8.0 mph12.9 kmh 29.97 in1014.9 mb 0.00 in0.0 mm 0.00 in0.0 mm 0.00 in0.0 mm
07:15 PM 76.1°F24.5°C 51.2°F10.7°C 42% 7.4 mph S11.9 kmh S 9.8 mph15.8 kmh 29.97 in1014.9 mb 0.00 in0.0 mm 0.00 in0.0 mm 0.00 in0.0 mm
07:20 PM 75.7°F24.3°C 50.9°F10.5°C 42% 4.9 mph SSW7.9 kmh SSW 9.8 mph15.8 kmh 29.97 in1014.9 mb 0.00 in0.0 mm 0.00 in0.0 mm 0.00 in0.0 mm
07:26 PM 75.5°F24.2°C 50.7°F10.4°C 42% 4.5 mph SSW7.2 kmh SSW 7.6 mph12.2 kmh 30.00 in1015.9 mb 0.00 in0.0 mm 0.00 in0.0 mm 0.00 in0.0 mm
07:31 PM 75.2°F24.0°C 50.4°F10.2°C 42% 3.8 mph SSW6.1 kmh SSW 9.4 mph15.1 kmh 30.00 in1015.9 mb 0.00 in0.0 mm 0.00 in0.0 mm 0.00 in0.0 mm
07:36 PM 74.8°F23.8°C 50.0°F10.0°C 42% 5.2 mph SSW8.4 kmh SSW 9.4 mph15.1 kmh 29.94 in1013.9 mb 0.00 in0.0 mm 0.00 in0.0 mm 0.00 in0.0 mm
07:41 PM 74.6°F23.7°C 50.5°F10.3°C 43% 3.5 mph SSW5.6 kmh SSW 7.6 mph12.2 kmh 29.94 in1013.9 mb 0.00 in0.0 mm 0.00 in0.0 mm 0.00 in0.0 mm
07:46 PM 73.9°F23.3°C 49.9°F9.9°C 43% 3.2 mph SSW5.1 kmh SSW 5.8 mph9.3 kmh 29.94 in1013.9 mb 0.00 in0.0 mm 0.00 in0.0 mm 0.00 in0.0 mm
07:51 PM 73.4°F23.0°C 49.4°F9.7°C 43% 2.7 mph SSE4.3 kmh SSE 5.4 mph8.7 kmh 29.97 in1014.9 mb 0.00 in0.0 mm 0.00 in0.0 mm 0.00 in0.0 mm
07:57 PM 72.7°F22.6°C 49.4°F9.7°C 44% 2.1 mph SSE3.4 kmh SSE 4.4 mph7.1 kmh 29.97 in1014.9 mb 0.00 in0.0 mm 0.00 in0.0 mm 0.00 in0.0 mm
08:02 PM 72.1°F22.3°C 48.9°F9.4°C 44% Calm Calm 3.2 mph5.1 kmh 29.97 in1014.9 mb 0.00 in0.0 mm 0.00 in0.0 mm 0.00 in0.0 mm
08:08 PM 71.6°F22.0°C 49.1°F9.5°C 45% Calm Calm 1.8 mph2.9 kmh 29.97 in1014.9 mb 0.00 in0.0 mm 0.00 in0.0 mm 0.00 in0.0 mm
08:13 PM 71.0°F21.7°C 49.1°F9.5°C 46% Calm Calm 1.8 mph2.9 kmh 29.97 in1014.9 mb 0.00 in0.0 mm 0.00 in0.0 mm 0.00 in0.0 mm
08:18 PM 70.7°F21.5°C 48.8°F9.3°C 46% Calm Calm -- 29.97 in1014.9 mb 0.00 in0.0 mm 0.00 in0.0 mm 0.00 in0.0 mm
08:23 PM 70.1°F21.2°C 48.9°F9.4°C 47% Calm Calm -- 29.94 in1013.9 mb 0.00 in0.0 mm 0.00 in0.0 mm 0.00 in0.0 mm
08:28 PM 69.6°F20.9°C 49.0°F9.4°C 48% Calm Calm -- 29.94 in1013.9 mb 0.00 in0.0 mm 0.00 in0.0 mm 0.00 in0.0 mm
08:33 PM 69.2°F20.7°C 49.2°F9.6°C 49% Calm Calm -- 29.94 in1013.9 mb 0.00 in0.0 mm 0.00 in0.0 mm 0.00 in0.0 mm
08:38 PM 69.1°F20.6°C 49.1°F9.5°C 49% Calm Calm -- 29.97 in1014.9 mb 0.00 in0.0 mm 0.00 in0.0 mm 0.00 in0.0 mm
08:43 PM 68.7°F20.4°C 49.3°F9.6°C 50% Calm Calm -- 29.97 in1014.9 mb 0.00 in0.0 mm 0.00 in0.0 mm 0.00 in0.0 mm
08:49 PM 68.5°F20.3°C 49.1°F9.5°C 50% Calm Calm -- 29.97 in1014.9 mb 0.00 in0.0 mm 0.00 in0.0 mm 0.00 in0.0 mm
08:54 PM 68.5°F20.3°C 49.7°F9.8°C 51% 2.6 mph SSE4.2 kmh SSE 3.2 mph5.1 kmh 29.97 in1014.9 mb 0.00 in0.0 mm 0.00 in0.0 mm 0.00 in0.0 mm
08:59 PM 68.3°F20.2°C 49.5°F9.7°C 51% Calm Calm 3.2 mph5.1 kmh 29.97 in1014.9 mb 0.00 in0.0 mm 0.00 in0.0 mm 0.00 in0.0 mm
09:04 PM 68.2°F20.1°C 49.9°F9.9°C 52% Calm Calm 2.6 mph4.2 kmh 29.97 in1014.9 mb 0.00 in0.0 mm 0.00 in0.0 mm 0.00 in0.0 mm
09:09 PM 67.8°F19.9°C 49.6°F9.8°C 52% Calm Calm -- 29.97 in1014.9 mb 0.00 in0.0 mm 0.00 in0.0 mm 0.00 in0.0 mm
09:14 PM 67.6°F19.8°C 49.9°F9.9°C 53% Calm Calm -- 29.97 in1014.9 mb 0.00 in0.0 mm 0.00 in0.0 mm 0.00 in0.0 mm
09:20 PM 67.3°F19.6°C 50.1°F10.1°C 54% Calm Calm -- 29.97 in1014.9 mb 0.00 in0.0 mm 0.00 in0.0 mm 0.00 in0.0 mm
09:25 PM 66.9°F19.4°C 50.3°F10.2°C 55% Calm Calm -- 29.97 in1014.9 mb 0.00 in0.0 mm 0.00 in0.0 mm 0.00 in0.0 mm
09:31 PM 66.4°F19.1°C 50.3°F10.2°C 56% Calm Calm -- 29.97 in1014.9 mb 0.00 in0.0 mm 0.00 in0.0 mm 0.00 in0.0 mm
09:36 PM 66.0°F18.9°C 50.9°F10.5°C 58% Calm Calm -- 30.00 in1015.9 mb 0.00 in0.0 mm 0.00 in0.0 mm 0.00 in0.0 mm
09:41 PM 65.6°F18.7°C 51.0°F10.6°C 59% Calm Calm -- 30.00 in1015.9 mb 0.00 in0.0 mm 0.00 in0.0 mm 0.00 in0.0 mm
09:46 PM 65.3°F18.5°C 51.2°F10.7°C 60% Calm Calm -- 30.00 in1015.9 mb 0.00 in0.0 mm 0.00 in0.0 mm 0.00 in0.0 mm
09:51 PM 64.9°F18.3°C 51.3°F10.7°C 61% Calm Calm -- 30.00 in1015.9 mb 0.00 in0.0 mm 0.00 in0.0 mm 0.00 in0.0 mm
09:56 PM 64.7°F18.2°C 51.9°F11.1°C 63% Calm Calm -- 30.00 in1015.9 mb 0.00 in0.0 mm 0.00 in0.0 mm 0.00 in0.0 mm
10:01 PM 64.4°F18.0°C 52.1°F11.2°C 64% Calm Calm -- 30.00 in1015.9 mb 0.00 in0.0 mm 0.00 in0.0 mm 0.00 in0.0 mm
10:06 PM 64.2°F17.9°C 52.3°F11.3°C 65% Calm Calm -- 30.00 in1015.9 mb 0.00 in0.0 mm 0.00 in0.0 mm 0.00 in0.0 mm
10:11 PM 63.7°F17.6°C 52.7°F11.5°C 67% Calm Calm -- 30.00 in1015.9 mb 0.00 in0.0 mm 0.00 in0.0 mm 0.00 in0.0 mm
10:16 PM 63.5°F17.5°C 52.5°F11.4°C 67% Calm Calm -- 30.00 in1015.9 mb 0.00 in0.0 mm 0.00 in0.0 mm 0.00 in0.0 mm
10:23 PM 63.3°F17.4°C 52.3°F11.3°C 67% Calm Calm -- 30.00 in1015.9 mb 0.00 in0.0 mm 0.00 in0.0 mm 0.00 in0.0 mm
10:28 PM 63.1°F17.3°C 52.5°F11.4°C 68% Calm Calm -- 30.00 in1015.9 mb 0.00 in0.0 mm 0.00 in0.0 mm 0.00 in0.0 mm
10:34 PM 62.9°F17.2°C 52.3°F11.3°C 68% Calm Calm -- 30.00 in1015.9 mb 0.00 in0.0 mm 0.00 in0.0 mm 0.00 in0.0 mm
10:39 PM 62.9°F17.2°C 52.7°F11.5°C 69% Calm Calm -- 30.00 in1015.9 mb 0.00 in0.0 mm 0.00 in0.0 mm 0.00 in0.0 mm
10:45 PM 62.8°F17.1°C 53.0°F11.7°C 70% Calm Calm -- 30.00 in1015.9 mb 0.00 in0.0 mm 0.00 in0.0 mm 0.00 in0.0 mm
10:50 PM 62.8°F17.1°C 53.0°F11.7°C 70% Calm Calm -- 30.00 in1015.9 mb 0.00 in0.0 mm 0.00 in0.0 mm 0.00 in0.0 mm
10:55 PM 62.8°F17.1°C 53.4°F11.9°C 71% Calm Calm -- 29.97 in1014.9 mb 0.00 in0.0 mm 0.00 in0.0 mm 0.00 in0.0 mm
11:00 PM 62.8°F17.1°C 53.4°F11.9°C 71% Calm Calm -- 29.97 in1014.9 mb 0.00 in0.0 mm 0.00 in0.0 mm 0.00 in0.0 mm
11:05 PM 62.6°F17.0°C 53.2°F11.8°C 71% Calm Calm -- 29.97 in1014.9 mb 0.00 in0.0 mm 0.00 in0.0 mm 0.00 in0.0 mm
11:10 PM 62.4°F16.9°C 53.4°F11.9°C 72% Calm Calm -- 29.97 in1014.9 mb 0.00 in0.0 mm 0.00 in0.0 mm 0.00 in0.0 mm
11:15 PM 62.6°F17.0°C 53.9°F12.2°C 73% 2.6 mph SSE4.2 kmh SSE 3.2 mph5.1 kmh 29.97 in1014.9 mb 0.00 in0.0 mm 0.00 in0.0 mm 0.00 in0.0 mm
11:20 PM 63.8°F17.7°C 56.2°F13.4°C 76% 5.6 mph S9.0 kmh S 7.2 mph11.6 kmh 29.97 in1014.9 mb 0.00 in0.0 mm 0.00 in0.0 mm 0.00 in0.0 mm
11:25 PM 64.0°F17.8°C 55.6°F13.1°C 74% 3.4 mph S5.5 kmh S 7.2 mph11.6 kmh 29.97 in1014.9 mb 0.00 in0.0 mm 0.00 in0.0 mm 0.00 in0.0 mm
11:30 PM 64.9°F18.3°C 56.9°F13.8°C 75% 5.5 mph S8.9 kmh S 8.0 mph12.9 kmh 29.97 in1014.9 mb 0.00 in0.0 mm 0.00 in0.0 mm 0.00 in0.0 mm
11:36 PM 65.6°F18.7°C 57.2°F14.0°C 74% 5.5 mph S8.9 kmh S 8.0 mph12.9 kmh 29.97 in1014.9 mb 0.00 in0.0 mm 0.00 in0.0 mm 0.00 in0.0 mm
11:41 PM 66.2°F19.0°C 57.4°F14.1°C 73% 5.6 mph S9.0 kmh S 9.4 mph15.1 kmh 29.97 in1014.9 mb 0.00 in0.0 mm 0.00 in0.0 mm 0.00 in0.0 mm
11:47 PM 66.4°F19.1°C 57.2°F14.0°C 72% 4.9 mph SSW7.9 kmh SSW 9.4 mph15.1 kmh 29.97 in1014.9 mb 0.00 in0.0 mm 0.00 in0.0 mm 0.00 in0.0 mm
11:52 PM 66.5°F19.2°C 57.3°F14.1°C 72% 5.7 mph SSW9.2 kmh SSW 9.4 mph15.1 kmh 29.94 in1013.9 mb 0.00 in0.0 mm 0.00 in0.0 mm 0.00 in0.0 mm
11:58 PM 66.7°F19.3°C 57.9°F14.4°C 73% 5.4 mph S8.7 kmh S 9.4 mph15.1 kmh 29.94 in1013.9 mb 0.00 in0.0 mm 0.00 in0.0 mm 0.00 in0.0 mm